createdAt,value
2017-09-13T00:01:30.578Z,8.63
2017-09-13T00:03:58.895Z,13.17
2017-09-13T00:06:43.357Z,13.33
2017-09-13T00:09:10.913Z,15.10
2017-09-13T00:11:38.452Z,6.90
2017-09-13T00:14:06.011Z,17.23
2017-09-13T00:16:33.542Z,15.60
2017-09-13T00:19:01.875Z,14.90
2017-09-13T00:21:29.413Z,11.27
2017-09-13T00:23:56.967Z,11.40
2017-09-13T00:26:24.504Z,12.10
2017-09-13T00:28:52.839Z,10.63
2017-09-13T00:31:20.375Z,14.53
2017-09-13T00:33:47.940Z,11.63
2017-09-13T00:36:15.480Z,13.00
2017-09-13T00:38:43.055Z,8.87
2017-09-13T00:41:10.600Z,12.60
2017-09-13T00:43:38.143Z,15.07
2017-09-13T00:46:06.467Z,9.73
2017-09-13T00:48:34.012Z,19.87
2017-09-13T00:51:01.583Z,14.13
2017-09-13T00:53:29.127Z,16.03
2017-09-13T00:55:56.683Z,11.70
2017-09-13T00:58:24.223Z,10.70
2017-09-13T01:00:52.550Z,11.10
2017-09-13T01:03:20.088Z,14.97
2017-09-13T01:05:47.652Z,11.47
2017-09-13T01:08:15.186Z,7.37
2017-09-13T01:10:42.750Z,9.23
2017-09-13T01:13:10.287Z,11.90
2017-09-13T01:15:38.636Z,10.53
2017-09-13T01:18:06.198Z,12.77
2017-09-13T01:20:33.763Z,12.60
2017-09-13T01:23:01.316Z,13.40
2017-09-13T01:25:28.889Z,11.03
2017-09-13T01:27:56.426Z,13.23
2017-09-13T01:30:23.991Z,12.90
2017-09-13T01:32:51.525Z,14.50
2017-09-13T01:35:19.083Z,15.93
2017-09-13T01:37:46.616Z,12.13
2017-09-13T01:40:14.947Z,13.33
2017-09-13T01:42:42.494Z,12.63
2017-09-13T01:45:10.035Z,10.07
2017-09-13T01:47:37.587Z,10.20
2017-09-13T01:50:05.119Z,20.10
2017-09-13T01:52:33.444Z,20.30
2017-09-13T01:55:00.978Z,18.37
2017-09-13T01:57:29.300Z,21.60
2017-09-13T01:59:56.833Z,15.67
2017-09-13T02:02:24.391Z,11.20
2017-09-13T02:04:51.919Z,12.30
2017-09-13T02:07:20.249Z,13.93
2017-09-13T02:09:47.780Z,9.53
2017-09-13T02:12:15.347Z,14.93
2017-09-13T02:14:42.891Z,9.97
2017-09-13T02:17:10.454Z,10.37
2017-09-13T02:19:37.994Z,10.73
2017-09-13T02:22:06.333Z,11.50
2017-09-13T02:24:33.870Z,16.23
2017-09-13T02:27:01.426Z,9.57
2017-09-13T02:29:28.971Z,9.27
2017-09-13T02:31:56.540Z,14.80
2017-09-13T02:34:24.080Z,13.63
2017-09-13T02:36:52.407Z,13.93
2017-09-13T02:39:19.935Z,8.77
2017-09-13T02:41:47.494Z,9.50
2017-09-13T02:44:15.036Z,15.10
2017-09-13T02:46:42.588Z,14.50
2017-09-13T02:49:10.928Z,11.53
2017-09-13T02:51:38.463Z,9.73
2017-09-13T02:54:06.019Z,9.90
2017-09-13T02:56:33.559Z,14.07
2017-09-13T02:59:01.118Z,11.07
2017-09-13T03:01:28.663Z,13.27
2017-09-13T03:03:56.997Z,8.50
2017-09-13T03:06:24.535Z,10.80
2017-09-13T03:08:52.095Z,13.30
2017-09-13T03:11:19.630Z,11.30
2017-09-13T03:13:47.194Z,12.97
2017-09-13T03:16:14.731Z,14.30
2017-09-13T03:18:42.295Z,17.93
2017-09-13T03:21:10.599Z,10.00
2017-09-13T03:23:38.171Z,12.17
2017-09-13T03:26:05.711Z,9.47
2017-09-13T03:28:34.031Z,9.30
2017-09-13T03:31:01.578Z,11.50
2017-09-13T03:33:29.137Z,8.17
2017-09-13T03:35:56.676Z,7.60
2017-09-13T03:38:24.235Z,13.10
2017-09-13T03:40:51.767Z,8.80
2017-09-13T03:43:20.095Z,8.10
2017-09-13T03:45:47.639Z,9.03
2017-09-13T03:48:15.190Z,6.93
2017-09-13T03:50:42.737Z,10.13
2017-09-13T03:53:11.043Z,8.23
2017-09-13T03:55:38.599Z,8.80
2017-09-13T03:58:06.142Z,14.13
2017-09-13T04:00:33.712Z,10.13
2017-09-13T04:03:01.255Z,17.90
2017-09-13T04:05:28.817Z,8.60
2017-09-13T04:07:57.109Z,11.63
2017-09-13T04:10:24.663Z,6.50
2017-09-13T04:12:52.199Z,13.50
2017-09-13T04:15:20.537Z,18.93
2017-09-13T04:17:48.840Z,15.20
2017-09-13T04:20:16.396Z,8.90
2017-09-13T04:22:43.935Z,15.13
2017-09-13T04:25:11.502Z,12.40
2017-09-13T04:27:39.052Z,12.10
2017-09-13T04:30:06.612Z,11.93
2017-09-13T04:32:34.160Z,11.20
2017-09-13T04:35:01.735Z,11.47
2017-09-13T04:37:29.273Z,10.37
2017-09-13T04:39:56.838Z,9.03
2017-09-13T04:42:24.375Z,14.10
2017-09-13T04:44:51.934Z,15.40
2017-09-13T04:47:19.466Z,9.90
2017-09-13T04:49:47.818Z,11.77
2017-09-13T04:52:15.359Z,18.37
2017-09-13T04:54:42.901Z,20.37
2017-09-13T04:57:10.468Z,11.00
2017-09-13T04:59:38.006Z,13.27
2017-09-13T05:02:05.578Z,17.00
2017-09-13T05:04:33.116Z,13.50
2017-09-13T05:07:01.447Z,12.57
2017-09-13T05:09:28.995Z,12.27
2017-09-13T05:11:56.555Z,11.40
2017-09-13T05:14:25.098Z,17.33
2017-09-13T05:16:53.422Z,13.13
2017-09-13T05:19:20.972Z,11.87
2017-09-13T05:21:49.251Z,13.90
2017-09-13T05:24:16.822Z,11.57
2017-09-13T05:26:44.524Z,13.77
2017-09-13T05:29:12.834Z,10.47
2017-09-13T05:31:40.439Z,10.97
2017-09-13T05:34:07.982Z,10.93
2017-09-13T05:36:35.551Z,9.93
2017-09-13T05:39:03.090Z,12.00
2017-09-13T05:41:36.832Z,13.40
2017-09-13T05:44:04.359Z,16.20
2017-09-13T05:46:31.919Z,11.70
2017-09-13T05:48:59.455Z,13.03
2017-09-13T05:51:27.023Z,14.37
2017-09-13T05:53:54.548Z,19.60
2017-09-13T05:56:22.858Z,12.10
2017-09-13T05:58:50.424Z,14.43
2017-09-13T06:01:18.448Z,13.00
2017-09-13T06:03:46.016Z,8.83
2017-09-13T06:06:14.326Z,15.30
2017-09-13T06:08:41.898Z,11.47
2017-09-13T06:11:09.434Z,12.13
2017-09-13T06:13:36.992Z,9.67
2017-09-13T06:16:04.541Z,25.03
2017-09-13T06:18:32.877Z,27.10
2017-09-13T06:21:00.415Z,13.90
2017-09-13T06:23:27.980Z,14.60
2017-09-13T06:25:55.514Z,11.70
2017-09-13T06:28:23.080Z,10.83
2017-09-13T06:30:50.615Z,9.20
2017-09-13T06:33:18.952Z,9.50
2017-09-13T06:35:46.489Z,11.40
2017-09-13T06:38:14.051Z,16.00
2017-09-13T06:40:41.588Z,19.13
2017-09-13T06:43:09.147Z,13.67
2017-09-13T06:45:36.693Z,13.43
2017-09-13T06:48:05.023Z,10.10
2017-09-13T06:50:32.569Z,11.30
2017-09-13T06:53:00.132Z,12.83
2017-09-13T06:55:27.663Z,10.80
2017-09-13T06:57:55.196Z,11.60
2017-09-13T07:00:23.523Z,9.43
2017-09-13T07:02:51.061Z,15.63
2017-09-13T07:05:18.627Z,10.77
2017-09-13T07:07:46.163Z,8.33
2017-09-13T07:10:13.735Z,8.93
2017-09-13T07:12:41.271Z,11.23
2017-09-13T07:15:09.595Z,15.17
2017-09-13T07:17:37.131Z,14.07
2017-09-13T07:20:04.695Z,18.00
2017-09-13T07:22:32.230Z,16.90
2017-09-13T07:25:00.554Z,16.63
2017-09-13T07:27:28.100Z,10.47
2017-09-13T07:29:55.669Z,11.33
2017-09-13T07:32:23.203Z,14.83
2017-09-13T07:34:51.515Z,9.33
2017-09-13T07:37:19.044Z,6.90
2017-09-13T07:39:46.605Z,10.20
2017-09-13T07:42:14.147Z,10.50
2017-09-13T07:44:42.478Z,9.23
2017-09-13T07:47:10.007Z,9.73
2017-09-13T07:49:37.572Z,9.03
2017-09-13T07:52:05.113Z,10.87
2017-09-13T07:54:33.438Z,11.03
2017-09-13T07:57:00.963Z,6.90
2017-09-13T07:59:28.527Z,10.60
2017-09-13T08:01:56.072Z,11.40
2017-09-13T08:04:24.414Z,8.30
2017-09-13T08:06:51.963Z,11.07
2017-09-13T08:09:19.501Z,8.70
2017-09-13T08:11:47.051Z,8.97
2017-09-13T08:14:14.578Z,5.03
2017-09-13T08:16:42.902Z,6.57
2017-09-13T08:19:10.435Z,5.00
2017-09-13T08:21:38.001Z,6.83
2017-09-13T08:24:05.540Z,7.50
2017-09-13T08:26:33.861Z,6.63
2017-09-13T08:29:01.388Z,4.40
2017-09-13T08:31:28.938Z,6.30
2017-09-13T08:33:57.231Z,5.20
2017-09-13T08:36:24.792Z,5.20
2017-09-13T08:38:52.324Z,6.90
2017-09-13T08:41:20.647Z,6.37
2017-09-13T08:43:48.178Z,8.47
2017-09-13T08:46:15.727Z,6.67
2017-09-13T08:48:44.037Z,10.60
2017-09-13T08:51:11.591Z,6.63
2017-09-13T08:53:39.118Z,4.83
2017-09-13T08:56:07.445Z,8.20
2017-09-13T08:58:34.980Z,11.63
2017-09-13T09:01:02.549Z,7.53
2017-09-13T09:03:30.089Z,16.97
2017-09-13T09:05:57.669Z,5.10
2017-09-13T09:08:25.197Z,7.60
2017-09-13T09:10:53.494Z,7.00
2017-09-13T09:13:21.051Z,7.30
2017-09-13T09:15:48.592Z,4.23
2017-09-13T09:18:16.921Z,6.00
2017-09-13T09:20:44.455Z,6.00
2017-09-13T09:23:12.006Z,5.63
2017-09-13T09:25:39.549Z,4.47
2017-09-13T09:28:07.884Z,4.40
2017-09-13T09:30:35.416Z,2.90
2017-09-13T09:33:03.010Z,4.30
2017-09-13T09:35:30.551Z,4.50
2017-09-13T09:37:58.098Z,8.00
2017-09-13T09:40:25.652Z,3.60
2017-09-13T09:42:53.207Z,5.70
2017-09-13T09:45:20.735Z,8.50
2017-09-13T09:47:48.283Z,5.47
2017-09-13T09:50:15.824Z,3.33
2017-09-13T09:52:43.371Z,3.83
2017-09-13T09:55:10.898Z,3.70
2017-09-13T09:57:38.451Z,3.40
2017-09-13T10:00:06.747Z,3.03
2017-09-13T10:02:34.317Z,5.30
2017-09-13T10:05:01.845Z,4.80
2017-09-13T10:07:30.142Z,4.70
2017-09-13T10:09:57.698Z,2.93
2017-09-13T10:12:25.231Z,7.37
2017-09-13T10:14:53.555Z,3.57
2017-09-13T10:17:21.095Z,4.77
2017-09-13T10:19:48.660Z,6.13
2017-09-13T10:22:16.187Z,3.67
2017-09-13T10:24:44.516Z,3.50
2017-09-13T10:27:12.056Z,7.70
2017-09-13T10:29:39.611Z,5.60
2017-09-13T10:32:07.142Z,5.17
2017-09-13T10:34:35.459Z,6.33
2017-09-13T10:37:02.987Z,3.77
2017-09-13T10:39:31.320Z,10.47
2017-09-13T10:41:58.846Z,6.60
2017-09-13T10:44:26.400Z,6.90
2017-09-13T10:46:53.937Z,7.70
2017-09-13T10:49:22.263Z,5.80
2017-09-13T10:51:49.793Z,6.60
2017-09-13T10:54:17.344Z,7.87
2017-09-13T10:56:45.643Z,10.57
2017-09-13T10:59:13.202Z,7.40
2017-09-13T11:01:40.730Z,5.63
2017-09-13T11:04:09.072Z,10.00
2017-09-13T11:06:36.599Z,5.20
2017-09-13T11:09:04.140Z,10.43
2017-09-13T11:11:32.467Z,8.60
2017-09-13T11:14:00.771Z,9.60
2017-09-13T11:16:28.339Z,4.57
2017-09-13T11:18:55.862Z,5.77
2017-09-13T11:21:23.425Z,6.37
2017-09-13T11:23:50.969Z,7.30
2017-09-13T11:26:18.530Z,6.80
2017-09-13T11:28:46.051Z,7.60
2017-09-13T11:31:14.366Z,6.20
2017-09-13T11:33:41.900Z,5.20
2017-09-13T11:36:09.456Z,7.17
2017-09-13T11:38:37.748Z,5.40
2017-09-13T11:41:05.296Z,5.03
2017-09-13T11:43:32.827Z,5.70
2017-09-13T11:46:00.375Z,5.27
2017-09-13T11:48:27.907Z,4.93
2017-09-13T11:50:55.457Z,4.20
2017-09-13T11:53:22.984Z,5.10
2017-09-13T11:55:51.309Z,5.20
2017-09-13T11:58:18.840Z,3.27
2017-09-13T12:00:46.392Z,5.43
2017-09-13T12:03:13.915Z,3.90
2017-09-13T12:05:41.475Z,2.93
2017-09-13T12:08:09.007Z,3.40
2017-09-13T12:10:36.535Z,2.50
2017-09-13T12:13:04.097Z,4.03
2017-09-13T12:15:31.635Z,3.33
2017-09-13T12:17:59.958Z,3.20
2017-09-13T12:20:27.488Z,4.83
2017-09-13T12:22:55.044Z,4.27
2017-09-13T12:25:22.584Z,3.10
2017-09-13T12:27:50.922Z,3.77
2017-09-13T12:30:18.462Z,3.47
2017-09-13T12:32:46.025Z,4.50
2017-09-13T12:35:13.569Z,6.83
2017-09-13T12:37:41.127Z,4.60
2017-09-13T12:40:08.658Z,4.37
2017-09-13T12:42:36.984Z,3.90
2017-09-13T12:45:04.511Z,3.53
2017-09-13T12:47:32.830Z,4.10
2017-09-13T12:50:00.356Z,7.53
2017-09-13T12:52:27.912Z,4.97
2017-09-13T12:54:55.443Z,6.30
2017-09-13T12:57:23.000Z,6.83
2017-09-13T12:59:50.526Z,5.37
2017-09-13T13:02:18.078Z,7.83
2017-09-13T13:04:45.618Z,4.83
2017-09-13T13:07:13.171Z,4.07
2017-09-13T13:09:40.702Z,6.83
2017-09-13T13:12:08.263Z,7.87
2017-09-13T13:14:36.572Z,5.67
2017-09-13T13:17:04.103Z,6.47
2017-09-13T13:19:32.428Z,8.40
2017-09-13T13:21:59.960Z,5.50
2017-09-13T13:24:28.288Z,5.30
2017-09-13T13:26:55.823Z,8.23
2017-09-13T13:29:23.370Z,7.70
2017-09-13T13:31:50.895Z,6.70
2017-09-13T13:34:18.457Z,6.03
2017-09-13T13:36:46.758Z,5.10
2017-09-13T13:39:14.331Z,9.20
2017-09-13T13:41:41.933Z,5.23
2017-09-13T13:44:09.513Z,7.53
2017-09-13T13:46:37.848Z,10.87
2017-09-13T13:49:05.421Z,7.40
2017-09-13T13:51:33.021Z,5.50
2017-09-13T13:54:01.380Z,7.30
2017-09-13T13:56:29.699Z,10.03
2017-09-13T13:58:57.256Z,7.10
2017-09-13T14:01:24.808Z,9.07
2017-09-13T14:03:52.427Z,9.07
2017-09-13T14:06:20.009Z,6.63
2017-09-13T14:08:48.346Z,6.10
2017-09-13T14:11:15.908Z,4.97
2017-09-13T14:13:43.471Z,7.87
2017-09-13T14:16:11.032Z,9.87
2017-09-13T14:18:38.574Z,7.67
2017-09-13T14:21:06.135Z,7.07
2017-09-13T14:23:33.658Z,9.23
2017-09-13T14:26:01.999Z,8.00
2017-09-13T14:28:30.299Z,5.83
2017-09-13T14:30:58.628Z,5.00
2017-09-13T14:33:26.172Z,7.27
2017-09-13T14:35:53.729Z,8.57
2017-09-13T14:38:21.270Z,6.63
2017-09-13T14:40:49.596Z,6.83
2017-09-13T14:43:17.131Z,7.07
2017-09-13T14:45:44.687Z,8.40
2017-09-13T14:48:12.242Z,9.07
2017-09-13T14:50:39.798Z,7.60
2017-09-13T14:53:07.395Z,8.10
2017-09-13T14:55:35.028Z,10.73
2017-09-13T14:58:02.608Z,10.10
2017-09-13T15:00:30.166Z,6.20
2017-09-13T15:02:57.697Z,6.83
2017-09-13T15:05:26.019Z,7.93
2017-09-13T15:07:53.547Z,16.30
2017-09-13T15:10:21.112Z,9.90
2017-09-13T15:12:48.667Z,10.67
2017-09-13T15:15:16.295Z,9.40
2017-09-13T15:17:44.604Z,10.53
2017-09-13T15:20:12.147Z,11.27
2017-09-13T15:22:40.479Z,8.60
2017-09-13T15:25:08.016Z,8.23
2017-09-13T15:27:35.572Z,10.43
2017-09-13T15:30:03.112Z,13.50
2017-09-13T15:32:30.675Z,11.40
2017-09-13T15:34:58.211Z,12.53
2017-09-13T15:37:26.528Z,13.40
2017-09-13T15:39:54.058Z,14.57
2017-09-13T15:42:22.383Z,18.90
2017-09-13T15:44:49.919Z,10.83
2017-09-13T15:47:17.479Z,15.30
2017-09-13T15:49:45.011Z,10.83
2017-09-13T15:52:13.331Z,11.60
2017-09-13T15:54:40.860Z,6.53
2017-09-13T15:57:08.423Z,9.07
2017-09-13T15:59:35.951Z,11.37
2017-09-13T16:02:03.517Z,12.23
2017-09-13T16:04:31.046Z,10.23
2017-09-13T16:06:58.599Z,7.63
2017-09-13T16:09:26.902Z,10.17
2017-09-13T16:12:00.379Z,11.20
2017-09-13T16:14:27.918Z,12.13
2017-09-13T16:16:55.480Z,7.50
2017-09-13T16:19:23.015Z,12.63
2017-09-13T16:21:50.580Z,7.97
2017-09-13T16:24:18.120Z,7.63
2017-09-13T16:26:46.419Z,8.20
2017-09-13T16:29:13.979Z,7.43
2017-09-13T16:31:41.515Z,8.63
2017-09-13T16:34:09.969Z,9.60
2017-09-13T16:36:37.523Z,9.70
2017-09-13T16:39:05.085Z,9.53
2017-09-13T16:41:32.627Z,18.90
2017-09-13T16:44:00.189Z,15.27
2017-09-13T16:46:27.722Z,11.67
2017-09-13T16:48:55.276Z,7.93
2017-09-13T16:51:32.829Z,10.13
2017-09-13T16:54:00.387Z,8.67
2017-09-13T16:56:27.932Z,11.10
2017-09-13T16:58:55.500Z,6.53
2017-09-13T17:01:23.048Z,7.37
2017-09-13T17:03:50.599Z,7.60
2017-09-13T17:06:18.145Z,9.47
2017-09-13T17:08:45.717Z,10.73
2017-09-13T17:11:13.243Z,9.47
2017-09-13T17:13:40.799Z,10.57
2017-09-13T17:16:08.337Z,8.03
2017-09-13T17:18:36.662Z,8.87
2017-09-13T17:21:04.201Z,9.83
2017-09-13T17:23:31.760Z,6.47
2017-09-13T17:25:59.303Z,8.33
2017-09-13T17:28:27.633Z,7.43
2017-09-13T17:30:55.956Z,10.63
2017-09-13T17:33:24.259Z,10.90
2017-09-13T17:35:51.839Z,6.23
2017-09-13T17:38:19.376Z,7.40
2017-09-13T17:40:46.935Z,9.50
2017-09-13T17:43:14.472Z,9.20
2017-09-13T17:45:42.807Z,10.30
2017-09-13T17:48:10.342Z,8.83
2017-09-13T17:50:37.898Z,6.83
2017-09-13T17:53:05.441Z,29.90
2017-09-13T17:55:33.811Z,8.23
2017-09-13T17:58:02.121Z,5.83
2017-09-13T18:00:29.676Z,7.63
2017-09-13T18:02:57.206Z,8.47
2017-09-13T18:05:25.523Z,6.20
2017-09-13T18:07:53.052Z,14.67
2017-09-13T18:10:20.616Z,9.03
2017-09-13T18:12:48.160Z,10.87
2017-09-13T18:15:16.484Z,8.57
2017-09-13T18:17:44.786Z,10.13
2017-09-13T18:20:12.489Z,10.57
2017-09-13T18:22:40.051Z,9.33
2017-09-13T18:25:08.375Z,9.70
2017-09-13T18:27:35.911Z,11.90
2017-09-13T18:30:03.473Z,15.73
2017-09-13T18:32:31.177Z,10.43
2017-09-13T18:34:58.748Z,6.00
2017-09-13T18:37:26.331Z,7.37
2017-09-13T18:39:53.916Z,10.30
2017-09-13T18:42:21.487Z,11.27
2017-09-13T18:44:49.199Z,6.60
2017-09-13T18:47:17.528Z,15.00
2017-09-13T18:49:45.099Z,7.40
2017-09-13T18:52:13.514Z,12.53
2017-09-13T18:54:41.027Z,9.47
2017-09-13T18:57:08.586Z,10.63
2017-09-13T18:59:36.117Z,7.70
2017-09-13T19:02:03.678Z,14.90
2017-09-13T19:04:31.216Z,14.87
2017-09-13T19:06:59.556Z,11.53
2017-09-13T19:09:27.103Z,11.97
2017-09-13T19:11:54.673Z,11.70
2017-09-13T19:14:22.217Z,11.47
2017-09-13T19:16:49.776Z,7.03
2017-09-13T19:19:17.320Z,13.50
2017-09-13T19:21:44.876Z,9.40
2017-09-13T19:24:12.407Z,7.37
2017-09-13T19:26:40.742Z,16.47
2017-09-13T19:29:08.276Z,9.97
2017-09-13T19:31:35.835Z,18.53
2017-09-13T19:34:03.375Z,10.67
2017-09-13T19:36:31.702Z,18.30
2017-09-13T19:38:59.271Z,15.33
2017-09-13T19:41:26.816Z,11.53
2017-09-13T19:43:54.587Z,9.17
2017-09-13T19:46:22.133Z,6.47
2017-09-13T19:48:49.713Z,4.40
2017-09-13T19:51:17.268Z,3.93
2017-09-13T19:53:44.840Z,6.00
2017-09-13T19:56:12.396Z,5.13
2017-09-13T19:58:40.114Z,5.07
2017-09-13T20:01:07.649Z,5.43
2017-09-13T20:03:36.052Z,4.50
2017-09-13T20:06:03.596Z,4.50
2017-09-13T20:08:31.914Z,4.60
2017-09-13T20:10:59.457Z,5.17
2017-09-13T20:13:27.024Z,5.73
2017-09-13T20:15:54.563Z,8.27
2017-09-13T20:18:22.120Z,4.97
2017-09-13T20:20:50.414Z,5.03
2017-09-13T20:23:17.996Z,5.67
2017-09-13T20:25:45.620Z,3.33
2017-09-13T20:28:13.939Z,5.80
2017-09-13T20:30:41.475Z,4.60
2017-09-13T20:33:09.071Z,5.93
2017-09-13T20:35:36.629Z,10.80
2017-09-13T20:38:04.183Z,5.13
2017-09-13T20:40:31.739Z,5.30
2017-09-13T20:42:59.267Z,6.00
2017-09-13T20:45:26.824Z,5.80
2017-09-13T20:47:54.364Z,5.13
2017-09-13T20:50:22.693Z,8.07
2017-09-13T20:52:50.218Z,3.93
2017-09-13T20:55:18.537Z,5.00
2017-09-13T20:57:46.065Z,4.77
2017-09-13T21:00:13.631Z,3.87
2017-09-13T21:02:41.163Z,4.23
2017-09-13T21:05:09.490Z,3.90
2017-09-13T21:07:37.018Z,3.50
2017-09-13T21:10:04.575Z,4.10
2017-09-13T21:12:32.099Z,4.63
2017-09-13T21:14:59.659Z,5.03
2017-09-13T21:17:27.186Z,2.87
2017-09-13T21:19:54.739Z,3.60
2017-09-13T21:22:22.276Z,5.60
2017-09-13T21:24:49.832Z,8.33
2017-09-13T21:27:17.363Z,8.00
2017-09-13T21:29:44.924Z,4.57
2017-09-13T21:32:13.219Z,3.83
2017-09-13T21:34:41.537Z,3.60
2017-09-13T21:37:09.078Z,4.50
2017-09-13T21:39:36.619Z,7.60
2017-09-13T21:42:04.947Z,7.73
2017-09-13T21:44:32.479Z,4.10
2017-09-13T21:47:00.038Z,3.90
2017-09-13T21:49:27.567Z,6.30
2017-09-13T21:51:55.883Z,3.90
2017-09-13T21:54:23.418Z,4.47
2017-09-13T21:56:50.976Z,6.13
2017-09-13T21:59:18.514Z,3.50
2017-09-13T22:01:46.855Z,7.27
2017-09-13T22:04:14.386Z,5.30
2017-09-13T22:06:41.944Z,5.47
2017-09-13T22:09:09.471Z,5.33
2017-09-13T22:11:37.795Z,5.47
2017-09-13T22:14:05.324Z,5.00
2017-09-13T22:16:33.644Z,5.73
2017-09-13T22:19:01.171Z,6.20
2017-09-13T22:21:28.733Z,4.90
2017-09-13T22:23:56.272Z,4.13
2017-09-13T22:26:24.587Z,4.70
2017-09-13T22:28:52.164Z,6.80
2017-09-13T22:51:53.105Z,4.27
2017-09-13T22:54:20.646Z,5.10
2017-09-13T22:56:48.969Z,4.27
2017-09-13T22:59:16.507Z,5.97
2017-09-13T23:01:44.072Z,3.00
2017-09-13T23:04:11.599Z,3.13
2017-09-13T23:06:39.939Z,5.00
2017-09-13T23:09:07.476Z,5.07
2017-09-13T23:17:41.339Z,4.10
2017-09-13T23:20:08.873Z,3.53
2017-09-13T23:22:36.435Z,3.30
2017-09-13T23:25:03.967Z,3.43
2017-09-13T23:27:32.290Z,2.87
2017-09-13T23:29:59.818Z,2.60
2017-09-13T23:32:27.376Z,3.63
2017-09-13T23:34:55.671Z,2.40
2017-09-13T23:37:23.212Z,2.97
2017-09-13T23:39:51.532Z,3.30
2017-09-13T23:42:19.055Z,3.90
2017-09-13T23:44:46.602Z,3.07
2017-09-13T23:47:22.844Z,2.43
2017-09-13T23:49:50.408Z,3.60
2017-09-13T23:52:17.935Z,1.90
2017-09-13T23:54:45.483Z,2.47
2017-09-13T23:57:13.030Z,2.20
2017-09-13T23:59:40.586Z,1.90
